createdAt,value
2018-08-06T00:01:03.214Z,14.90
2018-08-06T00:03:32.102Z,14.90
2018-08-06T00:06:01.251Z,14.90
2018-08-06T00:08:30.183Z,14.90
2018-08-06T00:10:59.086Z,14.80
2018-08-06T00:13:27.996Z,14.90
2018-08-06T00:15:56.885Z,14.80
2018-08-06T00:18:25.795Z,14.90
2018-08-06T00:20:54.719Z,14.90
2018-08-06T00:23:23.630Z,15.00
2018-08-06T00:25:52.513Z,15.00
2018-08-06T00:28:21.430Z,14.90
2018-08-06T00:30:50.339Z,14.90
2018-08-06T00:33:19.254Z,14.90
2018-08-06T00:35:48.154Z,14.90
2018-08-06T00:38:17.535Z,14.90
2018-08-06T00:40:46.418Z,14.80
2018-08-06T00:43:15.326Z,14.70
2018-08-06T00:45:44.225Z,14.60
2018-08-06T00:48:13.135Z,14.50
2018-08-06T00:50:42.031Z,14.40
2018-08-06T00:53:10.943Z,14.40
2018-08-06T00:55:39.838Z,14.40
2018-08-06T00:58:08.741Z,14.30
2018-08-06T01:00:37.637Z,14.30
2018-08-06T01:03:06.905Z,14.10
2018-08-06T01:05:35.799Z,14.10
2018-08-06T01:08:04.711Z,13.90
2018-08-06T01:10:33.609Z,13.70
2018-08-06T01:13:02.496Z,13.50
2018-08-06T01:15:31.718Z,13.40
2018-08-06T01:18:00.615Z,13.50
2018-08-06T01:20:29.506Z,13.50
2018-08-06T01:22:58.420Z,13.60
2018-08-06T01:25:27.319Z,13.70
2018-08-06T01:27:56.220Z,13.70
2018-08-06T01:30:25.111Z,13.80
2018-08-06T01:32:54.031Z,13.80
2018-08-06T01:35:22.919Z,13.90
2018-08-06T01:37:51.814Z,14.00
2018-08-06T01:40:20.698Z,14.00
2018-08-06T01:42:49.594Z,14.00
2018-08-06T01:45:18.483Z,14.00
2018-08-06T01:47:47.390Z,14.00
2018-08-06T01:50:16.487Z,14.00
2018-08-06T01:52:45.378Z,14.00
2018-08-06T01:55:14.297Z,13.90
2018-08-06T01:57:43.238Z,13.90
2018-08-06T02:00:14.167Z,13.90
2018-08-06T02:02:43.080Z,13.80
2018-08-06T02:05:12.160Z,13.80
2018-08-06T02:07:41.471Z,13.70
2018-08-06T02:10:12.537Z,13.50
2018-08-06T02:12:42.015Z,13.50
2018-08-06T02:15:11.611Z,13.40
2018-08-06T02:17:40.820Z,13.40
2018-08-06T02:20:12.514Z,13.50
2018-08-06T02:22:41.559Z,13.50
2018-08-06T02:25:10.973Z,13.50
2018-08-06T02:27:40.163Z,13.50
2018-08-06T02:30:12.943Z,13.40
2018-08-06T02:32:42.135Z,13.40
2018-08-06T02:35:12.653Z,13.40
2018-08-06T02:37:42.272Z,13.40
2018-08-06T02:40:13.970Z,13.30
2018-08-06T02:42:42.903Z,13.20
2018-08-06T02:45:11.793Z,13.10
2018-08-06T02:47:40.713Z,13.10
2018-08-06T02:50:10.703Z,13.10
2018-08-06T02:52:40.177Z,13.20
2018-08-06T02:55:10.740Z,13.20
2018-08-06T02:57:39.627Z,13.30
2018-08-06T03:00:12.718Z,13.30
2018-08-06T03:02:42.504Z,13.30
2018-08-06T03:05:13.162Z,13.30
2018-08-06T03:07:43.158Z,13.30
2018-08-06T03:10:12.243Z,13.20
2018-08-06T03:12:41.559Z,13.00
2018-08-06T03:15:11.669Z,13.00
2018-08-06T03:17:41.174Z,13.00
2018-08-06T03:20:11.496Z,12.90
2018-08-06T03:22:40.452Z,12.80
2018-08-06T03:25:11.309Z,12.80
2018-08-06T03:27:40.171Z,12.70
2018-08-06T03:30:12.462Z,12.50
2018-08-06T03:32:41.670Z,12.50
2018-08-06T03:35:11.691Z,12.50
2018-08-06T03:37:40.661Z,12.50
2018-08-06T03:40:10.135Z,12.50
2018-08-06T03:42:39.046Z,12.50
2018-08-06T03:45:09.299Z,12.50
2018-08-06T03:47:38.487Z,12.50
2018-08-06T03:50:08.310Z,12.50
2018-08-06T03:52:37.247Z,12.60
2018-08-06T03:55:06.910Z,12.50
2018-08-06T03:57:35.852Z,12.50
2018-08-06T04:00:06.561Z,12.50
2018-08-06T04:02:35.487Z,12.50
2018-08-06T04:05:05.894Z,12.50
2018-08-06T04:07:34.782Z,12.40
2018-08-06T04:10:03.685Z,12.20
2018-08-06T04:12:32.579Z,12.20
2018-08-06T04:15:01.471Z,12.20
2018-08-06T04:17:30.402Z,12.20
2018-08-06T04:19:59.301Z,12.20
2018-08-06T04:22:28.203Z,12.20
2018-08-06T04:24:57.094Z,12.10
2018-08-06T04:27:25.999Z,12.10
2018-08-06T04:29:54.900Z,12.10
2018-08-06T04:32:23.993Z,12.10
2018-08-06T04:34:53.122Z,12.30
2018-08-06T04:37:22.070Z,12.30
2018-08-06T04:39:51.336Z,12.30
2018-08-06T04:42:20.500Z,12.50
2018-08-06T04:44:49.382Z,12.60
2018-08-06T04:47:18.331Z,12.60
2018-08-06T04:52:16.327Z,12.80
2018-08-06T04:54:45.214Z,12.90
2018-08-06T04:57:14.103Z,13.00
2018-08-06T04:59:43.004Z,13.10
2018-08-06T05:02:11.876Z,13.10
2018-08-06T05:04:40.771Z,13.10
2018-08-06T05:07:09.664Z,13.10
2018-08-06T05:09:41.462Z,13.20
2018-08-06T05:12:10.363Z,13.20
2018-08-06T05:14:40.271Z,13.30
2018-08-06T05:17:09.219Z,13.40
2018-08-06T05:19:39.247Z,13.50
2018-08-06T05:22:08.229Z,13.50
2018-08-06T05:24:37.120Z,13.70
2018-08-06T05:27:06.006Z,13.80
2018-08-06T05:29:34.912Z,14.00
2018-08-06T05:32:03.922Z,14.10
2018-08-06T05:37:08.060Z,14.40
2018-08-06T05:39:36.957Z,14.60
2018-08-06T05:42:05.851Z,14.90
2018-08-06T05:44:34.746Z,15.00
2018-08-06T05:47:03.659Z,15.10
2018-08-06T05:49:32.556Z,15.30
2018-08-06T05:52:01.451Z,15.50
2018-08-06T05:54:30.431Z,15.60
2018-08-06T05:56:59.336Z,15.70
2018-08-06T05:59:28.259Z,15.90
2018-08-06T06:01:57.154Z,16.00
2018-08-06T06:04:26.067Z,16.10
2018-08-06T06:06:54.980Z,16.20
2018-08-06T06:09:23.871Z,16.40
2018-08-06T06:11:52.906Z,16.50
2018-08-06T06:14:21.775Z,16.70
2018-08-06T06:16:50.678Z,16.90
2018-08-06T06:19:19.677Z,17.10
2018-08-06T06:21:48.571Z,17.30
2018-08-06T06:24:17.787Z,17.50
2018-08-06T06:26:46.820Z,17.70
2018-08-06T06:29:15.715Z,17.90
2018-08-06T06:31:44.610Z,18.20
2018-08-06T06:34:13.510Z,18.40
2018-08-06T06:36:42.413Z,18.70
2018-08-06T06:39:12.422Z,18.90
2018-08-06T06:41:41.442Z,19.10
2018-08-06T06:44:10.324Z,19.40
2018-08-06T06:46:40.006Z,19.70
2018-08-06T06:49:09.109Z,19.90
2018-08-06T06:51:37.991Z,20.10
2018-08-06T06:54:07.258Z,20.30
2018-08-06T06:56:36.204Z,20.60
2018-08-06T06:59:05.082Z,20.90
2018-08-06T07:01:33.996Z,21.20
2018-08-06T07:04:02.893Z,21.30
2018-08-06T07:06:31.814Z,21.60
2018-08-06T07:09:00.708Z,22.00
2018-08-06T07:11:29.609Z,22.20
2018-08-06T07:13:58.583Z,22.40
2018-08-06T07:16:27.418Z,22.70
2018-08-06T07:18:56.311Z,23.00
2018-08-06T07:21:25.223Z,23.20
2018-08-06T07:23:54.125Z,23.40
2018-08-06T07:26:23.034Z,23.50
2018-08-06T07:28:51.919Z,23.70
2018-08-06T07:31:20.911Z,23.90
2018-08-06T07:33:49.976Z,23.90
2018-08-06T07:36:18.888Z,24.20
2018-08-06T07:38:47.803Z,24.40
2018-08-06T07:41:16.702Z,24.60
2018-08-06T07:43:45.634Z,24.80
2018-08-06T07:46:14.519Z,25.00
2018-08-06T07:48:43.454Z,25.10
2018-08-06T07:51:12.322Z,25.30
2018-08-06T07:53:41.222Z,25.50
2018-08-06T07:56:10.113Z,25.70
2018-08-06T07:58:39.002Z,25.80
2018-08-06T08:01:07.907Z,26.00
2018-08-06T08:03:36.799Z,26.10
2018-08-06T08:06:05.691Z,26.10
2018-08-06T08:08:34.589Z,26.30
2018-08-06T08:11:03.550Z,26.30
2018-08-06T08:13:32.415Z,26.50
2018-08-06T08:16:01.303Z,26.60
2018-08-06T08:18:30.194Z,26.90
2018-08-06T08:20:59.087Z,26.70
2018-08-06T08:23:27.984Z,26.90
2018-08-06T08:25:56.863Z,26.90
2018-08-06T08:28:25.764Z,26.80
2018-08-06T08:30:54.659Z,26.80
2018-08-06T08:33:23.571Z,27.10
2018-08-06T08:35:52.536Z,27.40
2018-08-06T08:38:21.440Z,27.50
2018-08-06T08:40:50.341Z,27.70
2018-08-06T08:43:19.239Z,27.80
2018-08-06T08:45:48.137Z,27.80
2018-08-06T08:48:17.034Z,28.00
2018-08-06T08:50:45.978Z,28.10
2018-08-06T08:53:14.924Z,28.50
2018-08-06T08:55:43.821Z,29.00
2018-08-06T08:58:12.726Z,29.10
2018-08-06T09:00:41.619Z,29.30
2018-08-06T09:03:10.526Z,29.30
2018-08-06T09:05:39.424Z,29.50
2018-08-06T09:08:08.328Z,29.70
2018-08-06T09:10:37.225Z,29.50
2018-08-06T09:13:12.592Z,29.60
2018-08-06T09:15:41.494Z,29.60
2018-08-06T09:18:10.395Z,29.90
2018-08-06T09:20:39.298Z,30.10
2018-08-06T09:23:08.218Z,29.70
2018-08-06T09:25:37.107Z,29.70
2018-08-06T09:28:06.013Z,29.00
2018-08-06T09:30:34.930Z,28.50
2018-08-06T09:33:03.839Z,28.20
2018-08-06T09:35:32.795Z,27.90
2018-08-06T09:38:01.689Z,28.30
2018-08-06T09:40:30.646Z,28.10
2018-08-06T09:42:59.607Z,28.40
2018-08-06T09:45:28.502Z,29.00
2018-08-06T09:47:57.443Z,29.20
2018-08-06T09:50:26.334Z,29.50
2018-08-06T09:52:55.242Z,30.00
2018-08-06T09:55:27.455Z,30.20
2018-08-06T09:57:56.357Z,29.40
2018-08-06T10:00:30.780Z,29.80
2018-08-06T10:03:00.976Z,30.20
2018-08-06T10:05:30.249Z,30.20
2018-08-06T10:07:59.085Z,30.60
2018-08-06T10:10:27.981Z,30.40
2018-08-06T10:12:56.875Z,30.30
2018-08-06T10:15:25.774Z,30.20
2018-08-06T10:20:24.968Z,30.20
2018-08-06T10:22:53.863Z,30.50
2018-08-06T10:25:22.780Z,30.90
2018-08-06T10:27:51.683Z,31.00
2018-08-06T10:30:21.841Z,30.60
2018-08-06T10:32:50.657Z,29.70
2018-08-06T10:35:20.224Z,29.10
2018-08-06T10:37:49.115Z,29.30
2018-08-06T10:40:23.891Z,29.50
2018-08-06T10:42:53.074Z,30.20
2018-08-06T10:45:23.156Z,30.60
2018-08-06T10:47:52.547Z,30.50
2018-08-06T10:50:27.879Z,30.70
2018-08-06T10:52:56.803Z,30.70
2018-08-06T10:55:25.708Z,30.90
2018-08-06T10:57:54.599Z,31.40
2018-08-06T11:00:23.971Z,31.90
2018-08-06T11:02:52.975Z,31.70
2018-08-06T11:05:21.919Z,31.60
2018-08-06T11:07:50.784Z,31.10
2018-08-06T11:10:20.939Z,31.20
2018-08-06T11:12:49.839Z,31.10
2018-08-06T11:15:22.926Z,31.00
2018-08-06T11:17:51.836Z,31.10
2018-08-06T11:20:21.341Z,30.80
2018-08-06T11:22:50.229Z,30.50
2018-08-06T11:25:20.838Z,30.80
2018-08-06T11:27:49.782Z,30.90
2018-08-06T11:30:20.157Z,30.40
2018-08-06T11:32:49.548Z,30.20
2018-08-06T11:35:18.523Z,30.80
2018-08-06T11:37:47.674Z,31.30
2018-08-06T11:40:17.554Z,31.40
2018-08-06T11:42:47.247Z,30.50
2018-08-06T11:45:17.300Z,30.60
2018-08-06T11:47:46.203Z,30.80
2018-08-06T11:50:15.947Z,30.70
2018-08-06T11:52:44.844Z,31.40
2018-08-06T11:55:13.758Z,31.40
2018-08-06T11:57:42.657Z,31.40
2018-08-06T12:00:16.861Z,31.40
2018-08-06T12:02:45.944Z,31.40
2018-08-06T12:05:14.908Z,31.10
2018-08-06T12:07:43.798Z,31.10
2018-08-06T12:10:14.458Z,31.20
2018-08-06T12:12:44.158Z,31.30
2018-08-06T12:15:13.075Z,31.50
2018-08-06T12:17:42.350Z,31.10
2018-08-06T12:20:13.071Z,31.20
2018-08-06T12:22:43.303Z,31.00
2018-08-06T12:25:13.011Z,30.90
2018-08-06T12:27:42.321Z,31.40
2018-08-06T12:30:15.136Z,31.40
2018-08-06T12:32:44.899Z,31.20
2018-08-06T12:35:14.206Z,31.30
2018-08-06T12:37:43.400Z,31.30
2018-08-06T12:40:14.423Z,31.40
2018-08-06T12:42:43.393Z,31.60
2018-08-06T12:45:13.183Z,31.80
2018-08-06T12:47:42.432Z,32.10
2018-08-06T12:50:12.403Z,32.30
2018-08-06T12:52:41.974Z,32.60
2018-08-06T12:55:12.259Z,32.30
2018-08-06T12:57:41.893Z,32.20
2018-08-06T13:00:13.003Z,31.90
2018-08-06T13:02:41.906Z,32.20
2018-08-06T13:05:11.142Z,32.00
2018-08-06T13:07:40.510Z,31.60
2018-08-06T13:10:09.466Z,31.90
2018-08-06T13:12:39.250Z,32.20
2018-08-06T13:15:10.026Z,32.20
2018-08-06T13:17:39.199Z,32.30
2018-08-06T13:20:08.482Z,32.40
2018-08-06T13:22:37.403Z,32.60
2018-08-06T13:25:08.851Z,32.90
2018-08-06T13:27:37.724Z,32.90
2018-08-06T13:30:08.652Z,32.70
2018-08-06T13:32:37.550Z,32.60
2018-08-06T13:35:06.459Z,32.60
2018-08-06T13:37:35.463Z,32.80
2018-08-06T13:40:05.443Z,32.80
2018-08-06T13:42:34.363Z,32.60
2018-08-06T13:45:03.839Z,32.60
2018-08-06T13:47:32.719Z,32.70
2018-08-06T13:50:01.987Z,32.80
2018-08-06T13:52:31.340Z,32.80
2018-08-06T13:55:00.302Z,32.80
2018-08-06T13:57:29.203Z,33.00
2018-08-06T13:59:58.114Z,33.20
2018-08-06T14:02:27.014Z,33.10
2018-08-06T14:04:55.907Z,33.20
2018-08-06T14:07:24.816Z,33.10
2018-08-06T14:09:53.735Z,33.20
2018-08-06T14:12:22.633Z,32.70
2018-08-06T14:14:51.516Z,32.80
2018-08-06T14:19:49.021Z,32.40
2018-08-06T14:22:17.934Z,32.50
2018-08-06T14:24:46.823Z,32.60
2018-08-06T14:27:15.711Z,32.90
2018-08-06T14:29:44.609Z,33.10
2018-08-06T14:32:13.521Z,32.70
2018-08-06T14:34:42.412Z,32.60
2018-08-06T14:37:11.315Z,32.80
2018-08-06T14:39:40.207Z,33.00
2018-08-06T14:42:09.111Z,32.90
2018-08-06T14:44:38.011Z,32.90
2018-08-06T14:47:06.906Z,32.90
2018-08-06T14:49:35.796Z,32.60
2018-08-06T14:52:04.737Z,32.40
2018-08-06T14:54:33.594Z,32.30
2018-08-06T14:57:02.582Z,32.20
2018-08-06T14:59:31.541Z,32.20
2018-08-06T15:02:00.409Z,32.30
2018-08-06T15:04:29.335Z,32.50
2018-08-06T15:06:58.248Z,32.40
2018-08-06T15:09:27.963Z,32.50
2018-08-06T15:11:56.931Z,32.40
2018-08-06T15:14:25.838Z,32.30
2018-08-06T15:16:54.762Z,32.30
2018-08-06T15:19:24.386Z,32.50
2018-08-06T15:21:53.357Z,32.70
2018-08-06T15:24:22.279Z,32.60
2018-08-06T15:26:51.167Z,32.50
2018-08-06T15:29:20.116Z,32.50
2018-08-06T15:31:48.976Z,32.30
2018-08-06T15:34:17.870Z,32.40
2018-08-06T15:36:46.773Z,32.40
2018-08-06T15:39:15.663Z,32.30
2018-08-06T15:41:44.836Z,32.50
2018-08-06T15:44:13.926Z,32.70
2018-08-06T15:46:42.811Z,32.70
2018-08-06T15:49:11.750Z,32.70
2018-08-06T15:51:40.670Z,32.70
2018-08-06T15:54:09.591Z,32.50
2018-08-06T15:56:38.478Z,32.50
2018-08-06T15:59:07.381Z,32.50
2018-08-06T16:01:36.295Z,32.40
2018-08-06T16:04:05.235Z,32.30
2018-08-06T16:06:34.174Z,32.20
2018-08-06T16:09:03.192Z,32.20
2018-08-06T16:11:32.278Z,32.30
2018-08-06T16:14:01.171Z,32.30
2018-08-06T16:16:30.057Z,32.30
2018-08-06T16:18:59.018Z,32.30
2018-08-06T16:21:27.898Z,32.30
2018-08-06T16:23:56.818Z,32.30
2018-08-06T16:26:25.726Z,32.30
2018-08-06T16:28:54.952Z,32.20
2018-08-06T16:31:23.887Z,32.30
2018-08-06T16:33:53.252Z,32.30
2018-08-06T16:36:22.135Z,32.30
2018-08-06T16:38:51.028Z,32.40
2018-08-06T16:41:20.175Z,32.20
2018-08-06T16:43:49.455Z,31.90
2018-08-06T16:46:18.342Z,31.90
2018-08-06T16:48:47.234Z,31.80
2018-08-06T16:51:16.133Z,31.80
2018-08-06T16:53:45.035Z,31.70
2018-08-06T16:56:13.951Z,31.80
2018-08-06T16:58:43.138Z,31.70
2018-08-06T17:01:12.054Z,31.70
2018-08-06T17:03:40.915Z,31.60
2018-08-06T17:06:09.806Z,31.60
2018-08-06T17:08:38.706Z,31.50
2018-08-06T17:11:07.591Z,31.40
2018-08-06T17:13:36.601Z,31.40
2018-08-06T17:16:05.498Z,31.20
2018-08-06T17:18:34.391Z,31.20
2018-08-06T17:21:03.295Z,31.10
2018-08-06T17:23:32.214Z,31.00
2018-08-06T17:26:01.115Z,31.10
2018-08-06T17:28:30.006Z,31.10
2018-08-06T17:30:58.910Z,31.10
2018-08-06T17:33:27.826Z,31.00
2018-08-06T17:35:56.735Z,31.10
2018-08-06T17:38:25.616Z,31.00
2018-08-06T17:40:54.534Z,31.00
2018-08-06T17:45:52.003Z,30.90
2018-08-06T17:48:20.854Z,30.80
2018-08-06T17:50:49.811Z,30.70
2018-08-06T17:53:18.709Z,30.70
2018-08-06T17:55:47.713Z,30.70
2018-08-06T17:58:16.734Z,30.60
2018-08-06T18:00:45.634Z,30.60
2018-08-06T18:03:14.531Z,30.50
2018-08-06T18:05:43.442Z,30.50
2018-08-06T18:08:12.400Z,30.40
2018-08-06T18:10:41.321Z,30.30
2018-08-06T18:13:10.220Z,30.10
2018-08-06T18:15:39.167Z,29.80
2018-08-06T18:18:08.102Z,29.70
2018-08-06T18:20:37.049Z,29.50
2018-08-06T18:23:05.943Z,29.30
2018-08-06T18:25:34.839Z,29.10
2018-08-06T18:28:03.735Z,29.00
2018-08-06T18:30:32.651Z,28.80
2018-08-06T18:33:01.527Z,28.60
2018-08-06T18:35:30.414Z,28.40
2018-08-06T18:37:59.304Z,28.30
2018-08-06T18:40:28.212Z,28.00
2018-08-06T18:42:57.090Z,27.80
2018-08-06T18:45:25.975Z,27.70
2018-08-06T18:47:54.864Z,27.50
2018-08-06T18:50:23.766Z,27.40
2018-08-06T18:52:52.662Z,27.20
2018-08-06T18:55:21.581Z,26.90
2018-08-06T18:57:50.505Z,26.70
2018-08-06T19:00:22.003Z,26.50
2018-08-06T19:02:51.075Z,26.30
2018-08-06T19:05:19.979Z,26.10
2018-08-06T19:07:48.924Z,25.90
2018-08-06T19:10:17.826Z,25.60
2018-08-06T19:12:52.554Z,25.50
2018-08-06T19:15:21.410Z,25.40
2018-08-06T19:17:55.679Z,25.10
2018-08-06T19:20:24.576Z,25.10
2018-08-06T19:22:53.654Z,25.00
2018-08-06T19:25:27.671Z,24.80
2018-08-06T19:27:56.763Z,24.60
2018-08-06T19:30:31.026Z,24.40
2018-08-06T19:33:00.311Z,24.30
2018-08-06T19:35:29.219Z,24.20
2018-08-06T19:37:58.121Z,24.10
2018-08-06T19:40:27.009Z,24.00
2018-08-06T19:43:01.260Z,23.90
2018-08-06T19:45:30.221Z,23.80
2018-08-06T19:47:59.050Z,23.60
2018-08-06T19:50:33.410Z,23.40
2018-08-06T19:53:02.320Z,23.30
2018-08-06T19:55:36.870Z,23.20
2018-08-06T19:58:05.814Z,23.20
2018-08-06T20:00:34.713Z,23.10
2018-08-06T20:05:32.326Z,22.90
2018-08-06T20:08:01.281Z,22.90
2018-08-06T20:10:30.473Z,22.80
2018-08-06T20:12:59.342Z,22.70
2018-08-06T20:15:28.221Z,22.60
2018-08-06T20:17:57.153Z,22.50
2018-08-06T20:20:25.998Z,22.40
2018-08-06T20:22:54.919Z,22.30
2018-08-06T20:25:23.795Z,22.20
2018-08-06T20:27:52.738Z,22.20
2018-08-06T20:30:22.386Z,22.20
2018-08-06T20:32:51.327Z,22.10
2018-08-06T20:35:20.538Z,22.00
2018-08-06T20:37:49.371Z,21.90
2018-08-06T20:40:18.263Z,21.90
2018-08-06T20:42:47.178Z,21.80
2018-08-06T20:45:20.836Z,21.70
2018-08-06T20:47:49.674Z,21.60
2018-08-06T20:50:20.312Z,21.60
2018-08-06T20:52:50.436Z,21.50
2018-08-06T20:55:19.327Z,21.30
2018-08-06T20:57:48.722Z,21.20
2018-08-06T21:00:19.858Z,21.20
2018-08-06T21:02:49.832Z,21.10
2018-08-06T21:05:18.991Z,21.10
2018-08-06T21:07:47.980Z,21.00
2018-08-06T21:10:17.865Z,20.90
2018-08-06T21:12:47.136Z,20.90
2018-08-06T21:15:16.254Z,20.90
2018-08-06T21:17:45.375Z,20.80
2018-08-06T21:20:16.696Z,20.70
2018-08-06T21:22:46.772Z,20.70
2018-08-06T21:25:15.916Z,20.60
2018-08-06T21:27:46.047Z,20.50
2018-08-06T21:30:17.787Z,20.40
2018-08-06T21:32:49.239Z,20.40
2018-08-06T21:35:19.047Z,20.40
2018-08-06T21:37:49.381Z,20.30
2018-08-06T21:40:19.034Z,20.30
2018-08-06T21:42:48.386Z,20.20
2018-08-06T21:45:17.282Z,20.20
2018-08-06T21:47:46.167Z,20.10
2018-08-06T21:50:15.371Z,20.10
2018-08-06T21:52:44.328Z,20.10
2018-08-06T21:55:13.278Z,20.00
2018-08-06T21:57:42.173Z,19.90
2018-08-06T22:00:13.523Z,19.80
2018-08-06T22:02:42.419Z,19.70
2018-08-06T22:05:11.331Z,19.60
2018-08-06T22:07:40.240Z,19.50
2018-08-06T22:10:09.127Z,19.60
2018-08-06T22:12:38.019Z,19.50
2018-08-06T22:15:06.897Z,19.50
2018-08-06T22:17:35.794Z,19.30
2018-08-06T22:20:05.207Z,19.30
2018-08-06T22:22:34.111Z,19.20
2018-08-06T22:25:03.000Z,19.20
2018-08-06T22:27:31.898Z,19.20
2018-08-06T22:30:00.791Z,19.20
2018-08-06T22:32:29.700Z,19.20
2018-08-06T22:34:58.938Z,19.20
2018-08-06T22:37:27.846Z,19.10
2018-08-06T22:39:56.731Z,19.10
2018-08-06T22:42:25.604Z,19.00
2018-08-06T22:44:54.492Z,19.00
2018-08-06T22:47:23.369Z,19.00
2018-08-06T22:49:52.250Z,18.90
2018-08-06T22:52:21.147Z,18.90
2018-08-06T22:54:50.030Z,18.90
2018-08-06T22:57:18.920Z,18.90
2018-08-06T22:59:47.821Z,18.80
2018-08-06T23:02:16.723Z,18.80
2018-08-06T23:04:45.635Z,18.80
2018-08-06T23:07:14.528Z,18.70
2018-08-06T23:09:43.431Z,18.60
2018-08-06T23:12:12.299Z,18.60
2018-08-06T23:14:41.201Z,18.50
2018-08-06T23:17:10.074Z,18.40
2018-08-06T23:19:39.003Z,18.30
2018-08-06T23:22:07.939Z,18.30
2018-08-06T23:24:36.839Z,18.20
2018-08-06T23:27:05.750Z,18.20
2018-08-06T23:29:34.647Z,18.20
2018-08-06T23:32:03.552Z,18.10
2018-08-06T23:34:32.690Z,18.00
2018-08-06T23:37:01.572Z,17.90
2018-08-06T23:39:30.488Z,17.90
2018-08-06T23:41:59.403Z,17.90
2018-08-06T23:44:28.283Z,17.90
2018-08-06T23:46:57.184Z,17.80
2018-08-06T23:49:26.083Z,17.80
2018-08-06T23:51:54.975Z,17.80
2018-08-06T23:54:23.866Z,17.80
2018-08-06T23:56:52.751Z,17.80
